sensor_id;sensor_type;location;lat;lon;timestamp;P1;durP1;ratioP1;P2;durP2;ratioP2
26080;SDS011;13991;51.174;4.438;2022-07-11T00:00:01;8.50;;;1.87;;
26080;SDS011;13991;51.174;4.438;2022-07-11T00:02:29;13.57;;;2.60;;
26080;SDS011;13991;51.174;4.438;2022-07-11T00:04:54;12.80;;;2.07;;
26080;SDS011;13991;51.174;4.438;2022-07-11T00:07:20;12.47;;;2.10;;
26080;SDS011;13991;51.174;4.438;2022-07-11T00:09:46;7.50;;;2.60;;
26080;SDS011;13991;51.174;4.438;2022-07-11T00:12:11;4.53;;;1.57;;
26080;SDS011;13991;51.174;4.438;2022-07-11T00:14:38;10.60;;;2.37;;
26080;SDS011;13991;51.174;4.438;2022-07-11T00:17:05;13.77;;;2.63;;
26080;SDS011;13991;51.174;4.438;2022-07-11T00:19:32;8.60;;;1.63;;
26080;SDS011;13991;51.174;4.438;2022-07-11T00:21:58;7.03;;;1.90;;
26080;SDS011;13991;51.174;4.438;2022-07-11T00:24:23;15.80;;;2.27;;
26080;SDS011;13991;51.174;4.438;2022-07-11T00:26:50;7.83;;;2.00;;
26080;SDS011;13991;51.174;4.438;2022-07-11T00:29:16;11.93;;;2.43;;
26080;SDS011;13991;51.174;4.438;2022-07-11T00:31:42;9.00;;;2.37;;
26080;SDS011;13991;51.174;4.438;2022-07-11T00:34:08;12.80;;;2.27;;
26080;SDS011;13991;51.174;4.438;2022-07-11T00:36:33;8.83;;;1.87;;
26080;SDS011;13991;51.174;4.438;2022-07-11T00:38:59;17.63;;;2.30;;
26080;SDS011;13991;51.174;4.438;2022-07-11T00:41:25;9.67;;;2.20;;
26080;SDS011;13991;51.174;4.438;2022-07-11T00:43:52;15.43;;;2.60;;
26080;SDS011;13991;51.174;4.438;2022-07-11T00:46:21;14.07;;;1.80;;
26080;SDS011;13991;51.174;4.438;2022-07-11T00:48:47;6.67;;;2.30;;
26080;SDS011;13991;51.174;4.438;2022-07-11T00:51:13;7.87;;;2.37;;
26080;SDS011;13991;51.174;4.438;2022-07-11T00:53:41;9.43;;;2.00;;
26080;SDS011;13991;51.174;4.438;2022-07-11T00:56:07;8.80;;;1.77;;
26080;SDS011;13991;51.174;4.438;2022-07-11T00:58:34;13.93;;;2.70;;
26080;SDS011;13991;51.174;4.438;2022-07-11T01:01:01;4.93;;;1.80;;
26080;SDS011;13991;51.174;4.438;2022-07-11T01:03:27;9.13;;;1.90;;
26080;SDS011;13991;51.174;4.438;2022-07-11T01:05:53;10.90;;;2.53;;
26080;SDS011;13991;51.174;4.438;2022-07-11T01:08:19;15.47;;;2.30;;
26080;SDS011;13991;51.174;4.438;2022-07-11T01:10:44;9.50;;;3.10;;
26080;SDS011;13991;51.174;4.438;2022-07-11T01:13:11;9.17;;;1.87;;
26080;SDS011;13991;51.174;4.438;2022-07-11T01:15:36;5.40;;;1.93;;
26080;SDS011;13991;51.174;4.438;2022-07-11T01:18:02;11.13;;;2.20;;
26080;SDS011;13991;51.174;4.438;2022-07-11T01:20:29;9.67;;;2.40;;
26080;SDS011;13991;51.174;4.438;2022-07-11T01:25:33;7.00;;;2.27;;
26080;SDS011;13991;51.174;4.438;2022-07-11T01:28:03;11.40;;;2.50;;
26080;SDS011;13991;51.174;4.438;2022-07-11T01:30:35;9.60;;;2.73;;
26080;SDS011;13991;51.174;4.438;2022-07-11T01:33:01;10.77;;;2.40;;
26080;SDS011;13991;51.174;4.438;2022-07-11T01:35:27;12.57;;;2.60;;
26080;SDS011;13991;51.174;4.438;2022-07-11T01:37:53;16.73;;;2.93;;
26080;SDS011;13991;51.174;4.438;2022-07-11T01:40:19;7.37;;;2.13;;
26080;SDS011;13991;51.174;4.438;2022-07-11T01:42:45;5.43;;;2.07;;
26080;SDS011;13991;51.174;4.438;2022-07-11T01:45:12;10.37;;;3.00;;
26080;SDS011;13991;51.174;4.438;2022-07-11T01:47:38;12.87;;;2.57;;
26080;SDS011;13991;51.174;4.438;2022-07-11T01:50:04;13.10;;;3.10;;
26080;SDS011;13991;51.174;4.438;2022-07-11T01:52:31;7.97;;;2.40;;
26080;SDS011;13991;51.174;4.438;2022-07-11T01:54:57;11.67;;;3.27;;
26080;SDS011;13991;51.174;4.438;2022-07-11T01:57:22;18.93;;;4.00;;
26080;SDS011;13991;51.174;4.438;2022-07-11T01:59:48;14.83;;;4.07;;
26080;SDS011;13991;51.174;4.438;2022-07-11T02:02:14;13.63;;;4.80;;
26080;SDS011;13991;51.174;4.438;2022-07-11T02:04:40;19.60;;;6.67;;
26080;SDS011;13991;51.174;4.438;2022-07-11T02:07:06;24.13;;;7.93;;
26080;SDS011;13991;51.174;4.438;2022-07-11T02:09:32;20.43;;;8.40;;
26080;SDS011;13991;51.174;4.438;2022-07-11T02:11:57;19.80;;;8.97;;
26080;SDS011;13991;51.174;4.438;2022-07-11T02:14:24;16.27;;;8.63;;
26080;SDS011;13991;51.174;4.438;2022-07-11T02:16:51;13.90;;;9.20;;
26080;SDS011;13991;51.174;4.438;2022-07-11T02:19:16;22.10;;;9.03;;
26080;SDS011;13991;51.174;4.438;2022-07-11T02:21:42;16.90;;;7.10;;
26080;SDS011;13991;51.174;4.438;2022-07-11T02:24:08;16.53;;;7.07;;
26080;SDS011;13991;51.174;4.438;2022-07-11T02:26:34;15.83;;;6.93;;
26080;SDS011;13991;51.174;4.438;2022-07-11T02:29:00;24.77;;;7.33;;
26080;SDS011;13991;51.174;4.438;2022-07-11T02:31:26;17.90;;;6.20;;
26080;SDS011;13991;51.174;4.438;2022-07-11T02:33:52;11.30;;;5.27;;
26080;SDS011;13991;51.174;4.438;2022-07-11T02:36:18;26.00;;;6.87;;
26080;SDS011;13991;51.174;4.438;2022-07-11T02:38:44;23.37;;;7.07;;
26080;SDS011;13991;51.174;4.438;2022-07-11T02:41:09;25.57;;;6.57;;
26080;SDS011;13991;51.174;4.438;2022-07-11T02:43:35;22.23;;;7.87;;
26080;SDS011;13991;51.174;4.438;2022-07-11T02:46:01;17.13;;;7.23;;
26080;SDS011;13991;51.174;4.438;2022-07-11T02:48:27;27.90;;;7.53;;
26080;SDS011;13991;51.174;4.438;2022-07-11T02:50:53;20.47;;;7.93;;
26080;SDS011;13991;51.174;4.438;2022-07-11T02:53:19;21.30;;;7.53;;
26080;SDS011;13991;51.174;4.438;2022-07-11T02:55:44;27.47;;;10.93;;
26080;SDS011;13991;51.174;4.438;2022-07-11T02:58:10;21.77;;;10.53;;
26080;SDS011;13991;51.174;4.438;2022-07-11T03:00:36;25.23;;;11.73;;
26080;SDS011;13991;51.174;4.438;2022-07-11T03:03:01;30.97;;;14.00;;
26080;SDS011;13991;51.174;4.438;2022-07-11T03:05:28;33.93;;;15.50;;
26080;SDS011;13991;51.174;4.438;2022-07-11T03:07:54;30.80;;;15.73;;
26080;SDS011;13991;51.174;4.438;2022-07-11T03:10:19;32.70;;;16.53;;
26080;SDS011;13991;51.174;4.438;2022-07-11T03:12:48;38.00;;;17.13;;
26080;SDS011;13991;51.174;4.438;2022-07-11T03:15:14;34.97;;;17.53;;
26080;SDS011;13991;51.174;4.438;2022-07-11T03:17:39;46.90;;;19.30;;
26080;SDS011;13991;51.174;4.438;2022-07-11T03:20:05;31.63;;;17.17;;
26080;SDS011;13991;51.174;4.438;2022-07-11T03:22:32;40.90;;;19.33;;
26080;SDS011;13991;51.174;4.438;2022-07-11T03:24:58;34.73;;;17.17;;
26080;SDS011;13991;51.174;4.438;2022-07-11T03:27:25;40.63;;;17.63;;
26080;SDS011;13991;51.174;4.438;2022-07-11T03:29:51;46.03;;;18.73;;
26080;SDS011;13991;51.174;4.438;2022-07-11T03:32:17;30.70;;;16.63;;
26080;SDS011;13991;51.174;4.438;2022-07-11T03:34:45;33.23;;;16.80;;
26080;SDS011;13991;51.174;4.438;2022-07-11T03:37:31;38.07;;;16.83;;
26080;SDS011;13991;51.174;4.438;2022-07-11T03:39:57;36.53;;;15.80;;
26080;SDS011;13991;51.174;4.438;2022-07-11T03:42:23;30.57;;;14.57;;
26080;SDS011;13991;51.174;4.438;2022-07-11T03:44:49;32.73;;;15.73;;
26080;SDS011;13991;51.174;4.438;2022-07-11T03:47:16;34.23;;;14.33;;
26080;SDS011;13991;51.174;4.438;2022-07-11T03:49:42;34.80;;;14.93;;
26080;SDS011;13991;51.174;4.438;2022-07-11T03:52:08;24.03;;;12.87;;
26080;SDS011;13991;51.174;4.438;2022-07-11T03:54:33;37.87;;;13.97;;
26080;SDS011;13991;51.174;4.438;2022-07-11T03:56:59;34.53;;;12.93;;
26080;SDS011;13991;51.174;4.438;2022-07-11T03:59:24;33.57;;;13.13;;
26080;SDS011;13991;51.174;4.438;2022-07-11T04:01:50;31.90;;;13.17;;
26080;SDS011;13991;51.174;4.438;2022-07-11T04:04:16;27.93;;;12.43;;
26080;SDS011;13991;51.174;4.438;2022-07-11T04:06:41;32.97;;;13.30;;
26080;SDS011;13991;51.174;4.438;2022-07-11T04:09:09;29.97;;;12.97;;
26080;SDS011;13991;51.174;4.438;2022-07-11T04:11:35;37.23;;;14.23;;
26080;SDS011;13991;51.174;4.438;2022-07-11T04:14:01;31.53;;;11.73;;
26080;SDS011;13991;51.174;4.438;2022-07-11T04:16:27;26.87;;;12.30;;
26080;SDS011;13991;51.174;4.438;2022-07-11T04:18:52;38.57;;;13.40;;
26080;SDS011;13991;51.174;4.438;2022-07-11T04:21:18;29.57;;;12.03;;
26080;SDS011;13991;51.174;4.438;2022-07-11T04:23:44;33.40;;;13.10;;
26080;SDS011;13991;51.174;4.438;2022-07-11T04:26:10;27.87;;;12.77;;
26080;SDS011;13991;51.174;4.438;2022-07-11T04:28:35;28.67;;;12.37;;
26080;SDS011;13991;51.174;4.438;2022-07-11T04:31:01;30.33;;;12.97;;
26080;SDS011;13991;51.174;4.438;2022-07-11T04:33:27;27.77;;;12.90;;
26080;SDS011;13991;51.174;4.438;2022-07-11T04:35:53;31.13;;;12.23;;
26080;SDS011;13991;51.174;4.438;2022-07-11T04:38:19;31.03;;;11.73;;
26080;SDS011;13991;51.174;4.438;2022-07-11T04:40:49;30.67;;;12.90;;
26080;SDS011;13991;51.174;4.438;2022-07-11T04:43:15;29.97;;;12.43;;
26080;SDS011;13991;51.174;4.438;2022-07-11T04:45:40;32.37;;;12.10;;
26080;SDS011;13991;51.174;4.438;2022-07-11T04:48:06;33.83;;;11.87;;
26080;SDS011;13991;51.174;4.438;2022-07-11T04:50:31;24.50;;;12.57;;
26080;SDS011;13991;51.174;4.438;2022-07-11T04:52:57;28.60;;;12.83;;
26080;SDS011;13991;51.174;4.438;2022-07-11T04:55:23;25.40;;;11.50;;
26080;SDS011;13991;51.174;4.438;2022-07-11T04:57:48;33.77;;;10.23;;
26080;SDS011;13991;51.174;4.438;2022-07-11T05:00:14;24.60;;;9.17;;
26080;SDS011;13991;51.174;4.438;2022-07-11T05:02:40;34.10;;;9.33;;
26080;SDS011;13991;51.174;4.438;2022-07-11T05:05:06;26.87;;;8.67;;
26080;SDS011;13991;51.174;4.438;2022-07-11T05:07:32;20.37;;;7.90;;
26080;SDS011;13991;51.174;4.438;2022-07-11T05:09:57;22.23;;;8.70;;
26080;SDS011;13991;51.174;4.438;2022-07-11T05:12:23;22.03;;;8.23;;
26080;SDS011;13991;51.174;4.438;2022-07-11T05:14:49;22.23;;;8.33;;
26080;SDS011;13991;51.174;4.438;2022-07-11T05:17:14;22.80;;;7.80;;
26080;SDS011;13991;51.174;4.438;2022-07-11T05:19:40;21.07;;;8.57;;
26080;SDS011;13991;51.174;4.438;2022-07-11T05:22:06;26.77;;;9.50;;
26080;SDS011;13991;51.174;4.438;2022-07-11T05:24:31;24.40;;;9.67;;
26080;SDS011;13991;51.174;4.438;2022-07-11T05:26:57;22.47;;;9.17;;
26080;SDS011;13991;51.174;4.438;2022-07-11T05:29:22;22.70;;;9.60;;
26080;SDS011;13991;51.174;4.438;2022-07-11T05:31:48;25.73;;;9.23;;
26080;SDS011;13991;51.174;4.438;2022-07-11T05:34:17;27.27;;;8.93;;
26080;SDS011;13991;51.174;4.438;2022-07-11T05:36:43;27.80;;;7.77;;
26080;SDS011;13991;51.174;4.438;2022-07-11T05:39:09;16.50;;;7.10;;
26080;SDS011;13991;51.174;4.438;2022-07-11T05:41:35;20.83;;;7.10;;
26080;SDS011;13991;51.174;4.438;2022-07-11T05:44:00;20.50;;;7.33;;
26080;SDS011;13991;51.174;4.438;2022-07-11T05:46:26;19.40;;;7.53;;
26080;SDS011;13991;51.174;4.438;2022-07-11T05:48:52;19.93;;;7.30;;
26080;SDS011;13991;51.174;4.438;2022-07-11T05:51:17;13.93;;;6.17;;
26080;SDS011;13991;51.174;4.438;2022-07-11T05:53:44;17.67;;;6.37;;
26080;SDS011;13991;51.174;4.438;2022-07-11T05:56:09;11.87;;;4.97;;
26080;SDS011;13991;51.174;4.438;2022-07-11T05:58:35;17.30;;;4.97;;
26080;SDS011;13991;51.174;4.438;2022-07-11T06:01:01;15.33;;;6.43;;
26080;SDS011;13991;51.174;4.438;2022-07-11T06:03:26;15.00;;;6.10;;
26080;SDS011;13991;51.174;4.438;2022-07-11T06:05:52;12.23;;;6.57;;
26080;SDS011;13991;51.174;4.438;2022-07-11T06:08:18;14.93;;;6.50;;
26080;SDS011;13991;51.174;4.438;2022-07-11T06:11:02;19.17;;;6.43;;
26080;SDS011;13991;51.174;4.438;2022-07-11T06:13:28;17.20;;;6.63;;
26080;SDS011;13991;51.174;4.438;2022-07-11T06:15:55;9.83;;;6.00;;
26080;SDS011;13991;51.174;4.438;2022-07-11T06:18:21;15.67;;;5.93;;
26080;SDS011;13991;51.174;4.438;2022-07-11T06:20:46;16.07;;;6.07;;
26080;SDS011;13991;51.174;4.438;2022-07-11T06:23:12;17.53;;;5.77;;
26080;SDS011;13991;51.174;4.438;2022-07-11T06:25:38;19.77;;;6.63;;
26080;SDS011;13991;51.174;4.438;2022-07-11T06:28:03;16.43;;;6.87;;
26080;SDS011;13991;51.174;4.438;2022-07-11T06:30:29;10.17;;;6.03;;
26080;SDS011;13991;51.174;4.438;2022-07-11T06:32:56;13.43;;;5.67;;
26080;SDS011;13991;51.174;4.438;2022-07-11T06:35:22;14.93;;;7.17;;
26080;SDS011;13991;51.174;4.438;2022-07-11T06:37:48;16.13;;;6.67;;
26080;SDS011;13991;51.174;4.438;2022-07-11T06:40:14;14.20;;;6.57;;
26080;SDS011;13991;51.174;4.438;2022-07-11T06:42:42;17.73;;;6.80;;
26080;SDS011;13991;51.174;4.438;2022-07-11T06:45:09;14.47;;;6.53;;
26080;SDS011;13991;51.174;4.438;2022-07-11T06:47:35;14.37;;;5.93;;
26080;SDS011;13991;51.174;4.438;2022-07-11T06:50:00;12.73;;;5.80;;
26080;SDS011;13991;51.174;4.438;2022-07-11T06:52:27;15.20;;;5.83;;
26080;SDS011;13991;51.174;4.438;2022-07-11T06:54:52;18.03;;;6.87;;
26080;SDS011;13991;51.174;4.438;2022-07-11T06:57:18;12.47;;;5.97;;
26080;SDS011;13991;51.174;4.438;2022-07-11T06:59:44;21.87;;;6.60;;
26080;SDS011;13991;51.174;4.438;2022-07-11T07:02:10;12.43;;;5.53;;
26080;SDS011;13991;51.174;4.438;2022-07-11T07:04:35;13.90;;;6.57;;
26080;SDS011;13991;51.174;4.438;2022-07-11T07:07:01;19.40;;;7.07;;
26080;SDS011;13991;51.174;4.438;2022-07-11T07:09:28;10.93;;;5.80;;
26080;SDS011;13991;51.174;4.438;2022-07-11T07:11:53;9.00;;;5.30;;
26080;SDS011;13991;51.174;4.438;2022-07-11T07:14:20;10.67;;;5.60;;
26080;SDS011;13991;51.174;4.438;2022-07-11T07:16:46;11.97;;;5.87;;
26080;SDS011;13991;51.174;4.438;2022-07-11T07:19:12;17.53;;;6.00;;
26080;SDS011;13991;51.174;4.438;2022-07-11T07:21:38;13.77;;;6.00;;
26080;SDS011;13991;51.174;4.438;2022-07-11T07:24:04;14.00;;;6.50;;
26080;SDS011;13991;51.174;4.438;2022-07-11T07:26:31;15.80;;;7.77;;
26080;SDS011;13991;51.174;4.438;2022-07-11T07:28:57;12.43;;;5.10;;
26080;SDS011;13991;51.174;4.438;2022-07-11T07:31:23;19.43;;;7.17;;
26080;SDS011;13991;51.174;4.438;2022-07-11T07:33:49;41.20;;;3.70;;
26080;SDS011;13991;51.174;4.438;2022-07-11T07:36:15;17.73;;;2.70;;
26080;SDS011;13991;51.174;4.438;2022-07-11T07:38:41;6.63;;;2.60;;
26080;SDS011;13991;51.174;4.438;2022-07-11T07:41:09;13.23;;;2.73;;
26080;SDS011;13991;51.174;4.438;2022-07-11T07:43:35;22.37;;;4.47;;
26080;SDS011;13991;51.174;4.438;2022-07-11T07:46:01;17.33;;;4.47;;
26080;SDS011;13991;51.174;4.438;2022-07-11T07:48:27;21.37;;;4.67;;
26080;SDS011;13991;51.174;4.438;2022-07-11T07:50:52;17.23;;;5.20;;
26080;SDS011;13991;51.174;4.438;2022-07-11T07:53:18;14.57;;;4.17;;
26080;SDS011;13991;51.174;4.438;2022-07-11T07:55:44;8.77;;;4.03;;
26080;SDS011;13991;51.174;4.438;2022-07-11T07:58:10;11.80;;;3.90;;
26080;SDS011;13991;51.174;4.438;2022-07-11T08:00:35;7.03;;;3.57;;
26080;SDS011;13991;51.174;4.438;2022-07-11T08:03:19;11.00;;;4.37;;
26080;SDS011;13991;51.174;4.438;2022-07-11T08:05:45;9.00;;;4.40;;
26080;SDS011;13991;51.174;4.438;2022-07-11T08:08:10;16.73;;;5.27;;
26080;SDS011;13991;51.174;4.438;2022-07-11T08:10:36;17.10;;;4.53;;
26080;SDS011;13991;51.174;4.438;2022-07-11T08:13:02;15.73;;;6.27;;
26080;SDS011;13991;51.174;4.438;2022-07-11T08:15:28;20.27;;;6.27;;
26080;SDS011;13991;51.174;4.438;2022-07-11T08:17:53;14.10;;;6.67;;
26080;SDS011;13991;51.174;4.438;2022-07-11T08:20:19;18.10;;;6.73;;
26080;SDS011;13991;51.174;4.438;2022-07-11T08:22:45;13.90;;;6.37;;
26080;SDS011;13991;51.174;4.438;2022-07-11T08:25:10;14.90;;;6.00;;
26080;SDS011;13991;51.174;4.438;2022-07-11T08:27:36;20.80;;;6.50;;
26080;SDS011;13991;51.174;4.438;2022-07-11T08:30:04;14.20;;;6.07;;
26080;SDS011;13991;51.174;4.438;2022-07-11T08:32:30;14.80;;;6.30;;
26080;SDS011;13991;51.174;4.438;2022-07-11T08:34:56;17.10;;;7.80;;
26080;SDS011;13991;51.174;4.438;2022-07-11T08:37:22;14.83;;;7.83;;
26080;SDS011;13991;51.174;4.438;2022-07-11T08:39:47;16.80;;;7.33;;
26080;SDS011;13991;51.174;4.438;2022-07-11T08:42:13;19.43;;;7.30;;
26080;SDS011;13991;51.174;4.438;2022-07-11T08:44:48;14.37;;;7.30;;
26080;SDS011;13991;51.174;4.438;2022-07-11T08:47:14;10.23;;;5.57;;
26080;SDS011;13991;51.174;4.438;2022-07-11T08:49:40;17.73;;;7.30;;
26080;SDS011;13991;51.174;4.438;2022-07-11T08:52:07;13.77;;;7.50;;
26080;SDS011;13991;51.174;4.438;2022-07-11T08:54:33;17.37;;;6.87;;
26080;SDS011;13991;51.174;4.438;2022-07-11T08:56:59;20.17;;;8.00;;
26080;SDS011;13991;51.174;4.438;2022-07-11T08:59:27;20.70;;;7.60;;
26080;SDS011;13991;51.174;4.438;2022-07-11T09:01:55;19.93;;;8.07;;
26080;SDS011;13991;51.174;4.438;2022-07-11T09:04:25;17.33;;;6.77;;
26080;SDS011;13991;51.174;4.438;2022-07-11T09:06:51;13.97;;;7.20;;
26080;SDS011;13991;51.174;4.438;2022-07-11T09:09:16;15.27;;;7.60;;
26080;SDS011;13991;51.174;4.438;2022-07-11T09:11:52;14.50;;;7.73;;
26080;SDS011;13991;51.174;4.438;2022-07-11T09:14:26;16.73;;;6.50;;
26080;SDS011;13991;51.174;4.438;2022-07-11T09:16:54;9.97;;;5.67;;
26080;SDS011;13991;51.174;4.438;2022-07-11T09:19:27;15.23;;;6.50;;
26080;SDS011;13991;51.174;4.438;2022-07-11T09:22:02;12.23;;;6.90;;
26080;SDS011;13991;51.174;4.438;2022-07-11T09:27:53;17.33;;;6.67;;
26080;SDS011;13991;51.174;4.438;2022-07-11T09:30:44;10.40;;;5.07;;
26080;SDS011;13991;51.174;4.438;2022-07-11T09:33:10;12.73;;;5.53;;
26080;SDS011;13991;51.174;4.438;2022-07-11T09:35:41;10.93;;;6.70;;
26080;SDS011;13991;51.174;4.438;2022-07-11T09:38:11;12.93;;;5.23;;
26080;SDS011;13991;51.174;4.438;2022-07-11T09:40:38;11.33;;;6.23;;
26080;SDS011;13991;51.174;4.438;2022-07-11T09:43:07;15.50;;;6.27;;
26080;SDS011;13991;51.174;4.438;2022-07-11T09:45:33;17.67;;;6.20;;
26080;SDS011;13991;51.174;4.438;2022-07-11T09:48:01;14.67;;;5.07;;
26080;SDS011;13991;51.174;4.438;2022-07-11T09:50:36;14.80;;;4.97;;
26080;SDS011;13991;51.174;4.438;2022-07-11T09:53:05;10.67;;;5.23;;
26080;SDS011;13991;51.174;4.438;2022-07-11T09:55:43;12.53;;;4.97;;
26080;SDS011;13991;51.174;4.438;2022-07-11T09:58:11;14.60;;;5.60;;
26080;SDS011;13991;51.174;4.438;2022-07-11T10:00:39;12.27;;;5.73;;
26080;SDS011;13991;51.174;4.438;2022-07-11T10:03:05;16.30;;;5.50;;
26080;SDS011;13991;51.174;4.438;2022-07-11T10:05:32;10.53;;;5.60;;
26080;SDS011;13991;51.174;4.438;2022-07-11T10:07:59;12.50;;;5.70;;
26080;SDS011;13991;51.174;4.438;2022-07-11T10:10:26;10.63;;;4.77;;
26080;SDS011;13991;51.174;4.438;2022-07-11T10:12:53;15.80;;;6.10;;
26080;SDS011;13991;51.174;4.438;2022-07-11T10:15:21;9.83;;;4.43;;
26080;SDS011;13991;51.174;4.438;2022-07-11T10:20:33;11.50;;;4.70;;
26080;SDS011;13991;51.174;4.438;2022-07-11T10:31:19;9.23;;;3.53;;
26080;SDS011;13991;51.174;4.438;2022-07-11T10:36:32;9.73;;;3.30;;
26080;SDS011;13991;51.174;4.438;2022-07-11T10:39:12;7.93;;;3.33;;
26080;SDS011;13991;51.174;4.438;2022-07-11T10:41:53;6.13;;;3.37;;
26080;SDS011;13991;51.174;4.438;2022-07-11T10:44:20;9.67;;;3.67;;
26080;SDS011;13991;51.174;4.438;2022-07-11T10:46:46;9.63;;;3.10;;
26080;SDS011;13991;51.174;4.438;2022-07-11T10:59:55;4.23;;;3.33;;
26080;SDS011;13991;51.174;4.438;2022-07-11T11:02:23;5.43;;;3.03;;
26080;SDS011;13991;51.174;4.438;2022-07-11T11:04:51;5.53;;;2.70;;
26080;SDS011;13991;51.174;4.438;2022-07-11T11:08:06;8.27;;;2.57;;
26080;SDS011;13991;51.174;4.438;2022-07-11T11:18:36;6.40;;;3.17;;
26080;SDS011;13991;51.174;4.438;2022-07-11T11:28:30;9.00;;;3.03;;
26080;SDS011;13991;51.174;4.438;2022-07-11T11:30:56;13.97;;;4.30;;
26080;SDS011;13991;51.174;4.438;2022-07-11T11:33:27;8.83;;;2.90;;
26080;SDS011;13991;51.174;4.438;2022-07-11T11:36:01;4.93;;;2.40;;
26080;SDS011;13991;51.174;4.438;2022-07-11T11:38:39;6.63;;;2.63;;
26080;SDS011;13991;51.174;4.438;2022-07-11T11:41:05;5.80;;;2.53;;
26080;SDS011;13991;51.174;4.438;2022-07-11T11:43:32;9.87;;;3.00;;
26080;SDS011;13991;51.174;4.438;2022-07-11T11:45:58;10.60;;;3.90;;
26080;SDS011;13991;51.174;4.438;2022-07-11T11:48:28;9.43;;;3.30;;
26080;SDS011;13991;51.174;4.438;2022-07-11T11:51:04;8.03;;;3.93;;
26080;SDS011;13991;51.174;4.438;2022-07-11T11:53:35;14.50;;;3.83;;
26080;SDS011;13991;51.174;4.438;2022-07-11T11:56:20;8.27;;;3.20;;
26080;SDS011;13991;51.174;4.438;2022-07-11T11:58:48;7.80;;;3.00;;
26080;SDS011;13991;51.174;4.438;2022-07-11T12:01:19;5.23;;;2.00;;
26080;SDS011;13991;51.174;4.438;2022-07-11T12:03:47;5.90;;;2.70;;
26080;SDS011;13991;51.174;4.438;2022-07-11T12:06:13;10.37;;;2.83;;
26080;SDS011;13991;51.174;4.438;2022-07-11T12:08:39;8.68;;;2.35;;
26080;SDS011;13991;51.174;4.438;2022-07-11T12:11:04;11.77;;;3.05;;
26080;SDS011;13991;51.174;4.438;2022-07-11T12:13:30;4.88;;;2.35;;
26080;SDS011;13991;51.174;4.438;2022-07-11T12:15:56;9.07;;;2.70;;
26080;SDS011;13991;51.174;4.438;2022-07-11T12:18:40;6.25;;;2.40;;
26080;SDS011;13991;51.174;4.438;2022-07-11T12:21:09;8.63;;;2.55;;
26080;SDS011;13991;51.174;4.438;2022-07-11T12:23:36;4.05;;;2.00;;
26080;SDS011;13991;51.174;4.438;2022-07-11T12:26:02;6.65;;;2.47;;
26080;SDS011;13991;51.174;4.438;2022-07-11T12:28:28;5.32;;;2.08;;
26080;SDS011;13991;51.174;4.438;2022-07-11T12:30:56;4.50;;;1.70;;
26080;SDS011;13991;51.174;4.438;2022-07-11T12:33:22;6.38;;;1.63;;
26080;SDS011;13991;51.174;4.438;2022-07-11T12:35:55;3.45;;;1.90;;
26080;SDS011;13991;51.174;4.438;2022-07-11T12:38:24;6.05;;;1.70;;
26080;SDS011;13991;51.174;4.438;2022-07-11T12:40:58;7.05;;;3.40;;
26080;SDS011;13991;51.174;4.438;2022-07-11T12:43:43;13.05;;;3.75;;
26080;SDS011;13991;51.174;4.438;2022-07-11T12:46:30;7.85;;;3.50;;
26080;SDS011;13991;51.174;4.438;2022-07-11T12:48:56;14.30;;;3.40;;
26080;SDS011;13991;51.174;4.438;2022-07-11T12:51:26;5.97;;;3.55;;
26080;SDS011;13991;51.174;4.438;2022-07-11T12:54:01;8.07;;;3.38;;
26080;SDS011;13991;51.174;4.438;2022-07-11T12:56:33;13.68;;;3.72;;
26080;SDS011;13991;51.174;4.438;2022-07-11T12:58:59;5.95;;;2.75;;
26080;SDS011;13991;51.174;4.438;2022-07-11T13:01:26;23.55;;;3.03;;
26080;SDS011;13991;51.174;4.438;2022-07-11T13:03:53;11.60;;;2.95;;
26080;SDS011;13991;51.174;4.438;2022-07-11T13:06:19;9.77;;;2.35;;
26080;SDS011;13991;51.174;4.438;2022-07-11T13:09:05;12.00;;;2.42;;
26080;SDS011;13991;51.174;4.438;2022-07-11T13:11:31;7.47;;;2.08;;
26080;SDS011;13991;51.174;4.438;2022-07-11T13:13:57;11.75;;;2.10;;
26080;SDS011;13991;51.174;4.438;2022-07-11T13:16:23;5.30;;;2.17;;
26080;SDS011;13991;51.174;4.438;2022-07-11T13:18:49;6.40;;;2.30;;
26080;SDS011;13991;51.174;4.438;2022-07-11T13:21:15;5.63;;;1.90;;
26080;SDS011;13991;51.174;4.438;2022-07-11T13:23:41;3.80;;;1.42;;
26080;SDS011;13991;51.174;4.438;2022-07-11T13:26:08;13.57;;;2.08;;
26080;SDS011;13991;51.174;4.438;2022-07-11T13:28:35;2.75;;;2.03;;
26080;SDS011;13991;51.174;4.438;2022-07-11T13:31:02;5.25;;;2.00;;
26080;SDS011;13991;51.174;4.438;2022-07-11T13:33:31;11.52;;;2.90;;
26080;SDS011;13991;51.174;4.438;2022-07-11T13:35:57;8.68;;;1.85;;
26080;SDS011;13991;51.174;4.438;2022-07-11T13:38:23;10.38;;;1.70;;
26080;SDS011;13991;51.174;4.438;2022-07-11T13:40:49;8.05;;;1.50;;
26080;SDS011;13991;51.174;4.438;2022-07-11T13:43:15;7.63;;;1.70;;
26080;SDS011;13991;51.174;4.438;2022-07-11T13:45:42;6.95;;;1.50;;
26080;SDS011;13991;51.174;4.438;2022-07-11T13:48:09;4.45;;;1.75;;
26080;SDS011;13991;51.174;4.438;2022-07-11T13:50:35;5.13;;;1.20;;
26080;SDS011;13991;51.174;4.438;2022-07-11T13:53:01;9.65;;;1.25;;
26080;SDS011;13991;51.174;4.438;2022-07-11T13:55:27;7.85;;;1.25;;
26080;SDS011;13991;51.174;4.438;2022-07-11T13:57:54;8.18;;;1.70;;
26080;SDS011;13991;51.174;4.438;2022-07-11T14:00:25;5.35;;;1.67;;
26080;SDS011;13991;51.174;4.438;2022-07-11T14:02:53;5.68;;;1.08;;
26080;SDS011;13991;51.174;4.438;2022-07-11T14:05:19;3.42;;;0.95;;
26080;SDS011;13991;51.174;4.438;2022-07-11T14:07:47;5.35;;;1.15;;
26080;SDS011;13991;51.174;4.438;2022-07-11T14:10:13;6.88;;;1.20;;
26080;SDS011;13991;51.174;4.438;2022-07-11T14:12:39;5.97;;;1.00;;
26080;SDS011;13991;51.174;4.438;2022-07-11T14:15:05;5.82;;;1.00;;
26080;SDS011;13991;51.174;4.438;2022-07-11T14:17:33;2.38;;;0.80;;
26080;SDS011;13991;51.174;4.438;2022-07-11T14:19:59;3.25;;;0.95;;
26080;SDS011;13991;51.174;4.438;2022-07-11T14:22:25;3.45;;;1.40;;
26080;SDS011;13991;51.174;4.438;2022-07-11T14:24:51;3.33;;;1.17;;
26080;SDS011;13991;51.174;4.438;2022-07-11T14:27:16;5.63;;;1.05;;
26080;SDS011;13991;51.174;4.438;2022-07-11T14:29:42;4.75;;;1.17;;
26080;SDS011;13991;51.174;4.438;2022-07-11T14:32:09;9.00;;;0.98;;
26080;SDS011;13991;51.174;4.438;2022-07-11T14:34:38;3.67;;;0.93;;
26080;SDS011;13991;51.174;4.438;2022-07-11T14:37:04;5.10;;;1.05;;
26080;SDS011;13991;51.174;4.438;2022-07-11T14:39:30;7.45;;;1.10;;
26080;SDS011;13991;51.174;4.438;2022-07-11T14:41:56;8.70;;;0.70;;
26080;SDS011;13991;51.174;4.438;2022-07-11T14:44:25;4.05;;;0.93;;
26080;SDS011;13991;51.174;4.438;2022-07-11T14:46:51;3.83;;;0.77;;
26080;SDS011;13991;51.174;4.438;2022-07-11T14:49:17;3.28;;;0.65;;
26080;SDS011;13991;51.174;4.438;2022-07-11T14:51:43;6.07;;;0.55;;
26080;SDS011;13991;51.174;4.438;2022-07-11T14:54:09;5.85;;;0.70;;
26080;SDS011;13991;51.174;4.438;2022-07-11T14:56:35;1.30;;;0.50;;
26080;SDS011;13991;51.174;4.438;2022-07-11T14:59:02;7.35;;;0.90;;
26080;SDS011;13991;51.174;4.438;2022-07-11T15:01:30;4.28;;;0.73;;
26080;SDS011;13991;51.174;4.438;2022-07-11T15:03:55;2.15;;;0.55;;
26080;SDS011;13991;51.174;4.438;2022-07-11T15:06:21;2.95;;;0.60;;
26080;SDS011;13991;51.174;4.438;2022-07-11T15:09:07;1.65;;;0.50;;
26080;SDS011;13991;51.174;4.438;2022-07-11T15:11:51;6.45;;;0.75;;
26080;SDS011;13991;51.174;4.438;2022-07-11T15:14:35;3.53;;;0.50;;
26080;SDS011;13991;51.174;4.438;2022-07-11T15:17:01;1.90;;;0.50;;
26080;SDS011;13991;51.174;4.438;2022-07-11T15:19:26;4.25;;;0.55;;
26080;SDS011;13991;51.174;4.438;2022-07-11T15:21:52;2.17;;;0.40;;
26080;SDS011;13991;51.174;4.438;2022-07-11T15:24:18;9.65;;;0.80;;